Terminal Aerodrome Forecast
Issued by NWS

Home | Current Version | Previous Version | Text Only | Print | Product List | Glossary On
Versions: 1 2 3 4 5 6 7 8 9 10 11 12 13 14 15
000
FTUS41 KILN 010500
TAFLCK
TAF
KLCK 010527Z 0106/0206 00000KT P6SM FEW050
      TEMPO 0108/0112 3SM BR
     FM011400 11002KT P6SM FEW040
     FM011700 13003KT P6SM BKN060
     FM020100 12003KT P6SM VCTS BKN050CB=

USA.gov is the U.S. government's official web portal to all federal, state and local government web resources and services.